createdAt,value
2023-01-06T00:00:32.758Z,14.40
2023-01-06T00:02:59.999Z,14.33
2023-01-06T00:05:29.092Z,13.93
2023-01-06T00:07:56.358Z,14.43
2023-01-06T00:10:24.155Z,14.77
2023-01-06T00:12:51.695Z,14.73
2023-01-06T00:15:19.526Z,13.90
2023-01-06T00:17:47.280Z,14.63
2023-01-06T00:20:14.591Z,14.23
2023-01-06T00:22:42.257Z,12.37
2023-01-06T00:25:13.216Z,11.37
2023-01-06T00:27:40.686Z,11.87
2023-01-06T00:30:08.646Z,10.83
2023-01-06T00:32:36.063Z,11.47
2023-01-06T00:35:03.646Z,13.00
2023-01-06T00:37:31.746Z,11.63
2023-01-06T00:39:59.231Z,11.37
2023-01-06T00:42:26.534Z,10.80
2023-01-06T00:44:53.963Z,11.80
2023-01-06T00:47:21.474Z,11.27
2023-01-06T00:49:49.132Z,9.97
2023-01-06T00:52:16.529Z,10.07
2023-01-06T00:54:43.831Z,10.00
2023-01-06T00:57:11.454Z,9.40
2023-01-06T00:59:38.769Z,8.47
2023-01-06T01:02:06.174Z,9.23
2023-01-06T01:04:33.585Z,8.40
2023-01-06T01:07:00.977Z,8.17
2023-01-06T01:09:30.001Z,7.90
2023-01-06T01:12:10.199Z,7.50
2023-01-06T01:14:38.488Z,6.90
2023-01-06T01:17:05.803Z,6.97
2023-01-06T01:19:33.500Z,6.40
2023-01-06T01:22:01.242Z,5.37
2023-01-06T01:24:28.629Z,6.17
2023-01-06T01:26:55.963Z,5.63
2023-01-06T01:29:25.436Z,5.30
2023-01-06T01:31:52.733Z,5.27
2023-01-06T01:34:21.903Z,5.33
2023-01-06T01:36:50.710Z,4.33
2023-01-06T01:39:19.761Z,4.40
2023-01-06T01:41:47.466Z,4.67
2023-01-06T01:44:33.491Z,4.57
2023-01-06T01:47:00.819Z,3.90
2023-01-06T01:49:30.169Z,4.07
2023-01-06T01:51:57.878Z,4.33
2023-01-06T01:54:27.732Z,5.53
2023-01-06T01:57:05.183Z,5.20
2023-01-06T01:59:33.429Z,4.70
2023-01-06T02:02:00.961Z,4.53
2023-01-06T02:04:29.073Z,4.67
2023-01-06T02:06:56.619Z,5.40
2023-01-06T02:09:28.393Z,5.60
2023-01-06T02:11:57.428Z,6.57
2023-01-06T02:14:26.481Z,7.47
2023-01-06T02:16:53.777Z,7.87
2023-01-06T02:19:24.041Z,7.13
2023-01-06T02:22:03.596Z,7.67
2023-01-06T02:24:56.195Z,8.13
2023-01-06T02:27:33.895Z,8.37
2023-01-06T02:30:09.577Z,9.20
2023-01-06T02:32:41.336Z,9.23
2023-01-06T02:35:24.057Z,8.77
2023-01-06T02:38:02.655Z,8.47
2023-01-06T02:40:45.375Z,9.80
2023-01-06T02:43:15.742Z,9.83
2023-01-06T02:45:50.545Z,9.00
2023-01-06T02:48:24.198Z,8.90
2023-01-06T02:51:03.818Z,9.70
2023-01-06T02:53:31.064Z,9.30
2023-01-06T02:55:58.993Z,8.03
2023-01-06T02:58:26.288Z,9.53
2023-01-06T03:00:57.476Z,8.40
2023-01-06T03:03:28.101Z,8.97
2023-01-06T03:05:58.490Z,8.87
2023-01-06T03:08:29.556Z,9.63
2023-01-06T03:10:58.285Z,10.40
2023-01-06T03:13:30.603Z,8.47
2023-01-06T03:15:59.656Z,10.83
2023-01-06T03:18:27.361Z,9.93
2023-01-06T03:20:57.687Z,9.53
2023-01-06T03:23:25.203Z,9.97
2023-01-06T03:25:52.595Z,9.33
2023-01-06T03:28:23.644Z,8.30
2023-01-06T03:31:01.735Z,8.77
2023-01-06T03:33:36.858Z,8.00
2023-01-06T03:36:09.189Z,7.60
2023-01-06T03:38:42.482Z,8.03
2023-01-06T03:41:49.150Z,7.67
2023-01-06T03:44:20.574Z,7.73
2023-01-06T03:46:53.541Z,7.97
2023-01-06T03:49:33.113Z,7.63
2023-01-06T03:52:00.326Z,7.80
2023-01-06T03:54:30.694Z,7.87
2023-01-06T03:57:04.636Z,7.80
2023-01-06T03:59:33.256Z,7.47
2023-01-06T04:02:01.202Z,6.73
2023-01-06T04:04:28.681Z,6.27
2023-01-06T04:06:56.125Z,6.60
2023-01-06T04:09:23.547Z,6.47
2023-01-06T04:12:09.812Z,6.00
2023-01-06T04:14:39.429Z,6.43
2023-01-06T04:17:07.154Z,5.63
2023-01-06T04:19:35.288Z,6.07
2023-01-06T04:22:04.534Z,5.33
2023-01-06T04:24:33.370Z,5.57
2023-01-06T04:27:00.696Z,5.50
2023-01-06T04:29:28.400Z,5.43
2023-01-06T04:31:57.081Z,5.17
2023-01-06T04:34:24.327Z,5.03
2023-01-06T04:36:52.689Z,4.87
2023-01-06T04:39:20.397Z,3.80
2023-01-06T04:41:47.648Z,3.50
2023-01-06T04:44:14.872Z,3.67
2023-01-06T04:46:42.109Z,3.67
2023-01-06T04:49:09.331Z,3.70
2023-01-06T04:51:36.709Z,2.60
2023-01-06T04:54:04.242Z,2.70
2023-01-06T04:56:31.515Z,3.13
2023-01-06T04:58:59.143Z,2.70
2023-01-06T05:01:27.468Z,2.87
2023-01-06T05:03:54.880Z,2.50
2023-01-06T05:06:22.431Z,2.57
2023-01-06T05:08:49.761Z,2.57
2023-01-06T05:11:21.594Z,2.20
2023-01-06T05:13:49.245Z,2.10
2023-01-06T05:16:25.806Z,1.40
2023-01-06T05:18:53.523Z,2.80
2023-01-06T05:21:20.952Z,1.67
2023-01-06T05:23:48.236Z,2.07
2023-01-06T05:26:17.005Z,1.70
2023-01-06T05:28:44.354Z,1.90
2023-01-06T05:31:11.735Z,1.63
2023-01-06T05:33:38.994Z,1.47
2023-01-06T05:36:07.933Z,1.77
2023-01-06T05:38:35.225Z,1.87
2023-01-06T05:41:02.849Z,1.50
2023-01-06T05:43:30.146Z,1.30
2023-01-06T05:45:57.490Z,1.80
2023-01-06T05:48:26.322Z,1.60
2023-01-06T05:50:53.667Z,2.10
2023-01-06T05:53:21.023Z,1.73
2023-01-06T05:55:48.307Z,1.87
2023-01-06T05:58:15.592Z,1.90
2023-01-06T06:00:42.902Z,1.43
2023-01-06T06:03:10.152Z,2.50
2023-01-06T06:05:37.391Z,1.80
2023-01-06T06:08:04.707Z,1.53
2023-01-06T06:10:31.920Z,1.83
2023-01-06T06:12:59.151Z,1.60
2023-01-06T06:15:26.487Z,1.73
2023-01-06T06:17:53.719Z,1.40
2023-01-06T06:20:21.083Z,1.70
2023-01-06T06:22:48.292Z,1.92
2023-01-06T06:25:15.576Z,1.77
2023-01-06T06:27:42.820Z,1.53
2023-01-06T06:30:10.372Z,1.90
2023-01-06T06:32:37.619Z,1.87
2023-01-06T06:35:05.084Z,1.37
2023-01-06T06:37:32.368Z,2.07
2023-01-06T06:39:59.652Z,1.27
2023-01-06T06:42:26.948Z,3.43
2023-01-06T06:44:54.229Z,1.67
2023-01-06T06:47:21.515Z,2.23
2023-01-06T06:49:48.827Z,1.53
2023-01-06T06:52:17.120Z,2.07
2023-01-06T06:54:44.369Z,1.40
2023-01-06T06:57:11.697Z,1.47
2023-01-06T06:59:38.970Z,1.70
2023-01-06T07:02:06.470Z,2.30
2023-01-06T07:04:33.720Z,1.20
2023-01-06T07:07:00.928Z,1.30
2023-01-06T07:09:28.146Z,1.67
2023-01-06T07:11:55.369Z,1.27
2023-01-06T07:14:22.588Z,1.57
2023-01-06T07:16:49.808Z,1.80
2023-01-06T07:19:17.031Z,1.50
2023-01-06T07:21:44.313Z,1.67
2023-01-06T07:24:11.560Z,1.77
2023-01-06T07:26:38.787Z,1.43
2023-01-06T07:29:06.031Z,2.00
2023-01-06T07:31:33.261Z,1.40
2023-01-06T07:34:00.487Z,1.70
2023-01-06T07:36:27.748Z,2.00
2023-01-06T07:38:54.987Z,1.70
2023-01-06T07:41:22.242Z,2.17
2023-01-06T07:43:50.111Z,1.47
2023-01-06T07:46:17.401Z,2.77
2023-01-06T07:48:44.685Z,1.50
2023-01-06T07:51:11.995Z,1.70
2023-01-06T07:53:39.286Z,1.53
2023-01-06T07:56:06.730Z,2.53
2023-01-06T07:58:34.018Z,1.83
2023-01-06T08:01:05.652Z,2.73
2023-01-06T08:03:35.989Z,1.63
2023-01-06T08:06:10.655Z,1.93
2023-01-06T08:08:41.644Z,1.70
2023-01-06T08:11:10.893Z,2.07
2023-01-06T08:13:38.168Z,1.80
2023-01-06T08:16:06.080Z,2.20
2023-01-06T08:18:33.616Z,1.50
2023-01-06T08:21:11.024Z,1.67
2023-01-06T08:23:38.341Z,1.80
2023-01-06T08:26:06.565Z,1.83
2023-01-06T08:28:33.985Z,1.80
2023-01-06T08:31:01.778Z,1.63
2023-01-06T08:33:29.247Z,1.63
2023-01-06T08:35:59.240Z,1.50
2023-01-06T08:38:26.777Z,1.57
2023-01-06T08:40:54.462Z,2.60
2023-01-06T08:43:21.849Z,1.80
2023-01-06T08:45:49.505Z,1.50
2023-01-06T08:48:16.875Z,1.75
2023-01-06T08:50:44.725Z,1.83
2023-01-06T08:53:12.202Z,1.83
2023-01-06T08:55:40.144Z,1.53
2023-01-06T08:58:07.508Z,1.53
2023-01-06T09:00:34.735Z,1.50
2023-01-06T09:03:02.107Z,1.73
2023-01-06T09:05:29.396Z,1.70
2023-01-06T09:07:56.723Z,1.70
2023-01-06T09:10:24.024Z,1.70
2023-01-06T09:12:51.373Z,1.27
2023-01-06T09:15:18.953Z,1.50
2023-01-06T09:17:46.272Z,1.63
2023-01-06T09:20:13.649Z,2.57
2023-01-06T09:22:40.936Z,1.33
2023-01-06T09:25:08.417Z,2.03
2023-01-06T09:27:35.779Z,2.17
2023-01-06T09:30:03.212Z,1.67
2023-01-06T09:32:30.488Z,1.77
2023-01-06T09:34:57.791Z,2.80
2023-01-06T09:37:25.063Z,1.97
2023-01-06T09:39:52.291Z,1.57
2023-01-06T09:42:19.504Z,2.27
2023-01-06T09:45:10.119Z,2.10
2023-01-06T09:47:42.904Z,1.90
2023-01-06T09:50:17.675Z,2.10
2023-01-06T09:52:47.459Z,2.20
2023-01-06T09:55:35.573Z,2.10
2023-01-06T09:58:07.118Z,2.27
2023-01-06T10:00:37.436Z,2.33
2023-01-06T10:03:05.432Z,2.53
2023-01-06T10:05:38.750Z,2.40
2023-01-06T10:08:24.846Z,2.40
2023-01-06T10:10:55.235Z,2.50
2023-01-06T10:13:41.316Z,2.37
2023-01-06T10:16:24.847Z,3.40
2023-01-06T10:19:05.629Z,3.20
2023-01-06T10:21:40.483Z,3.40
2023-01-06T10:24:07.753Z,3.63
2023-01-06T10:26:43.866Z,3.53
2023-01-06T10:29:20.988Z,4.30
2023-01-06T10:31:49.319Z,2.80
2023-01-06T10:34:22.096Z,3.80
2023-01-06T10:36:53.053Z,3.90
2023-01-06T10:39:22.109Z,3.50
2023-01-06T10:42:15.597Z,3.53
2023-01-06T10:44:42.972Z,3.97
2023-01-06T10:47:16.024Z,3.83
2023-01-06T10:49:43.430Z,3.67
2023-01-06T10:52:11.031Z,3.70
2023-01-06T10:54:39.775Z,3.10
2023-01-06T10:57:11.161Z,3.33
2023-01-06T11:00:07.961Z,3.93
2023-01-06T11:02:35.639Z,4.43
2023-01-06T11:05:03.156Z,4.07
2023-01-06T11:07:30.964Z,4.90
2023-01-06T11:10:00.397Z,4.60
2023-01-06T11:12:29.824Z,5.43
2023-01-06T11:14:59.238Z,5.77
2023-01-06T11:17:27.179Z,5.30
2023-01-06T11:20:08.802Z,5.40
2023-01-06T11:22:38.131Z,5.83
2023-01-06T11:25:23.212Z,5.10
2023-01-06T11:28:10.537Z,5.97
2023-01-06T11:30:39.719Z,5.27
2023-01-06T11:33:15.369Z,5.10
2023-01-06T11:35:42.824Z,4.20
2023-01-06T11:38:13.898Z,4.33
2023-01-06T11:40:43.495Z,4.10
2023-01-06T11:43:15.003Z,4.03
2023-01-06T11:45:48.644Z,3.83
2023-01-06T11:48:18.292Z,2.37
2023-01-06T11:50:53.220Z,2.27
2023-01-06T11:53:21.587Z,2.40
2023-01-06T11:55:58.029Z,2.00
2023-01-06T11:58:44.442Z,2.03
2023-01-06T12:01:14.916Z,1.43
2023-01-06T12:03:43.300Z,1.60
2023-01-06T12:06:16.819Z,1.87
2023-01-06T12:08:48.050Z,1.50
2023-01-06T12:11:18.752Z,1.17
2023-01-06T12:14:08.384Z,1.27
2023-01-06T12:16:37.655Z,0.80
2023-01-06T12:19:15.152Z,1.20
2023-01-06T12:21:42.822Z,1.87
2023-01-06T12:24:14.454Z,1.33
2023-01-06T12:26:42.936Z,0.73
2023-01-06T12:29:13.766Z,1.77
2023-01-06T12:32:00.148Z,1.30
2023-01-06T12:34:34.406Z,1.20
2023-01-06T12:37:18.336Z,1.30
2023-01-06T12:39:59.026Z,1.30
2023-01-06T12:42:29.482Z,1.30
2023-01-06T12:45:13.751Z,1.60
2023-01-06T12:47:50.969Z,1.53
2023-01-06T12:50:28.374Z,1.43
2023-01-06T12:52:59.891Z,1.50
2023-01-06T12:55:51.901Z,1.57
2023-01-06T12:58:25.073Z,1.67
2023-01-06T13:00:55.474Z,1.13
2023-01-06T13:03:41.709Z,1.13
2023-01-06T13:06:15.480Z,1.43
2023-01-06T13:09:06.348Z,1.60
2023-01-06T13:11:49.108Z,1.23
2023-01-06T13:14:27.436Z,1.67
2023-01-06T13:17:00.020Z,1.63
2023-01-06T13:19:39.657Z,1.67
2023-01-06T13:22:09.525Z,1.80
2023-01-06T13:24:55.604Z,1.73
2023-01-06T13:27:35.126Z,1.63
2023-01-06T13:30:38.240Z,1.40
2023-01-06T13:33:32.880Z,1.43
2023-01-06T13:36:16.338Z,1.50
2023-01-06T13:39:00.749Z,1.60
2023-01-06T13:41:34.333Z,1.37
2023-01-06T13:44:02.215Z,2.03
2023-01-06T13:46:31.120Z,1.67
2023-01-06T13:49:00.523Z,1.70
2023-01-06T13:51:30.519Z,1.90
2023-01-06T13:54:00.421Z,1.70
2023-01-06T13:56:29.094Z,1.97
2023-01-06T13:59:18.111Z,1.90
2023-01-06T14:01:45.650Z,2.00
2023-01-06T14:04:31.721Z,1.90
2023-01-06T14:06:59.263Z,2.30
2023-01-06T14:09:26.915Z,1.83
2023-01-06T14:11:55.196Z,2.33
2023-01-06T14:14:32.763Z,2.37
2023-01-06T14:17:00.250Z,2.70
2023-01-06T14:19:30.757Z,2.40
2023-01-06T14:22:18.464Z,3.47
2023-01-06T14:24:50.719Z,2.97
2023-01-06T14:27:38.046Z,2.97
2023-01-06T14:30:20.916Z,3.10
2023-01-06T14:32:48.268Z,3.07
2023-01-06T14:35:17.920Z,3.37
2023-01-06T14:37:50.744Z,2.97
2023-01-06T14:40:26.413Z,3.57
2023-01-06T14:42:53.902Z,3.77
2023-01-06T14:45:25.279Z,3.20
2023-01-06T14:47:57.739Z,3.33
2023-01-06T14:50:34.830Z,3.23
2023-01-06T14:53:31.615Z,3.77
2023-01-06T14:56:00.111Z,3.70
2023-01-06T14:58:28.100Z,3.53
2023-01-06T15:00:55.778Z,3.80
2023-01-06T15:03:23.851Z,3.73
2023-01-06T15:05:51.518Z,3.67
2023-01-06T15:08:19.688Z,3.90
2023-01-06T15:10:51.503Z,4.03
2023-01-06T15:13:23.913Z,4.87
2023-01-06T15:15:54.212Z,4.57
2023-01-06T15:18:21.604Z,4.00
2023-01-06T15:20:48.998Z,5.03
2023-01-06T15:23:17.236Z,4.47
2023-01-06T15:25:48.192Z,4.57
2023-01-06T15:28:25.753Z,5.10
2023-01-06T15:30:53.235Z,5.03
2023-01-06T15:33:21.873Z,4.67
2023-01-06T15:35:50.584Z,4.47
2023-01-06T15:38:27.233Z,4.53
2023-01-06T15:40:55.093Z,5.03
2023-01-06T15:43:26.888Z,5.00
2023-01-06T15:45:57.310Z,5.70
2023-01-06T15:48:28.218Z,5.83
2023-01-06T15:50:55.692Z,4.90
2023-01-06T15:53:24.774Z,6.43
2023-01-06T15:55:53.614Z,5.67
2023-01-06T15:58:22.931Z,6.30
2023-01-06T16:01:08.723Z,5.73
2023-01-06T16:03:37.678Z,6.03
2023-01-06T16:06:11.756Z,5.73
2023-01-06T16:08:40.436Z,5.67
2023-01-06T16:11:12.143Z,5.83
2023-01-06T16:13:40.259Z,6.90
2023-01-06T16:16:17.237Z,6.30
2023-01-06T16:18:45.039Z,6.20
2023-01-06T16:21:18.801Z,6.63
2023-01-06T16:23:50.492Z,6.53
2023-01-06T16:26:22.422Z,6.40
2023-01-06T16:28:57.463Z,7.40
2023-01-06T16:31:32.288Z,8.67
2023-01-06T16:34:18.510Z,12.50
2023-01-06T16:36:45.868Z,11.83
2023-01-06T16:39:14.090Z,10.53
2023-01-06T16:42:01.597Z,9.27
2023-01-06T16:44:30.061Z,9.50
2023-01-06T16:47:01.410Z,9.50
2023-01-06T16:49:30.355Z,9.77
2023-01-06T16:51:57.693Z,11.03
2023-01-06T16:54:24.933Z,10.60
2023-01-06T16:56:52.390Z,10.13
2023-01-06T16:59:22.156Z,11.30
2023-01-06T17:01:49.627Z,9.53
2023-01-06T17:04:17.042Z,10.40
2023-01-06T17:06:44.943Z,10.73
2023-01-06T17:09:22.588Z,11.10
2023-01-06T17:11:51.103Z,10.27
2023-01-06T17:14:19.473Z,11.00
2023-01-06T17:16:47.400Z,11.87
2023-01-06T17:19:25.147Z,11.13
2023-01-06T17:21:55.569Z,11.27
2023-01-06T17:24:24.031Z,12.57
2023-01-06T17:27:02.324Z,11.27
2023-01-06T17:29:33.698Z,11.07
2023-01-06T17:32:02.725Z,10.90
2023-01-06T17:34:31.902Z,11.17
2023-01-06T17:37:01.913Z,10.43
2023-01-06T17:39:36.446Z,10.57
2023-01-06T17:42:12.970Z,9.97
2023-01-06T17:44:42.025Z,9.20
2023-01-06T17:47:15.517Z,10.13
2023-01-06T17:49:54.866Z,10.13
2023-01-06T17:52:23.429Z,9.77
2023-01-06T17:55:11.965Z,8.70
2023-01-06T17:57:41.132Z,8.70
2023-01-06T18:00:20.716Z,10.93
2023-01-06T18:02:49.214Z,9.53
2023-01-06T18:05:22.686Z,10.00
2023-01-06T18:07:50.544Z,9.20
2023-01-06T18:10:18.311Z,8.90
2023-01-06T18:12:45.741Z,10.20
2023-01-06T18:15:31.331Z,10.40
2023-01-06T18:17:58.898Z,9.97
2023-01-06T18:20:26.110Z,10.60
2023-01-06T18:22:53.354Z,11.77
2023-01-06T18:25:27.410Z,11.60
2023-01-06T18:27:54.673Z,12.47
2023-01-06T18:30:27.935Z,12.03
2023-01-06T18:39:39.819Z,13.20
2023-01-06T18:42:16.835Z,12.83
2023-01-06T18:44:44.360Z,12.97
2023-01-06T18:47:15.454Z,13.17
2023-01-06T18:49:43.058Z,12.70
2023-01-06T18:52:25.447Z,13.50
2023-01-06T18:54:55.044Z,12.97
2023-01-06T18:57:28.772Z,13.03
2023-01-06T18:59:59.321Z,14.67
2023-01-06T19:02:33.283Z,13.53
2023-01-06T19:05:01.186Z,14.50
2023-01-06T19:07:30.136Z,15.47
2023-01-06T19:09:58.143Z,14.77
2023-01-06T19:12:25.504Z,13.53
2023-01-06T19:14:53.811Z,14.67
2023-01-06T19:17:32.086Z,14.83
2023-01-06T19:20:01.626Z,15.40
2023-01-06T19:22:29.995Z,15.90
2023-01-06T19:24:57.639Z,13.60
2023-01-06T19:27:25.068Z,16.93
2023-01-06T21:16:45.138Z,23.17
2023-01-06T21:23:11.793Z,20.77
2023-01-06T22:00:46.650Z,18.90
2023-01-06T22:03:15.135Z,18.70
2023-01-06T22:10:11.006Z,18.60
2023-01-06T22:12:39.547Z,18.53
2023-01-06T22:15:07.342Z,17.50
2023-01-06T22:17:34.810Z,19.40
2023-01-06T22:20:02.385Z,19.00
2023-01-06T22:22:30.394Z,20.03
2023-01-06T22:24:58.343Z,19.60
2023-01-06T22:27:25.780Z,18.27
2023-01-06T22:29:53.195Z,18.90
2023-01-06T22:32:20.677Z,18.60
2023-01-06T22:34:48.441Z,17.50
2023-01-06T22:37:15.897Z,16.77
2023-01-06T22:39:45.388Z,17.90
2023-01-06T22:42:12.983Z,16.17
2023-01-06T22:44:40.364Z,17.07
2023-01-06T22:47:07.790Z,17.73
2023-01-06T22:49:35.344Z,16.57
2023-01-06T22:52:02.831Z,16.77
2023-01-06T22:54:30.240Z,16.33
2023-01-06T22:56:57.674Z,15.37
2023-01-06T22:59:25.072Z,16.17
2023-01-06T23:01:52.749Z,17.30
2023-01-06T23:04:20.309Z,17.50
2023-01-06T23:06:47.762Z,17.57
2023-01-06T23:09:15.594Z,16.20
2023-01-06T23:11:44.007Z,16.97
2023-01-06T23:14:12.552Z,16.07
2023-01-06T23:16:40.960Z,16.17
2023-01-06T23:19:10.835Z,15.17
2023-01-06T23:21:38.341Z,15.47
2023-01-06T23:24:06.353Z,14.97
2023-01-06T23:26:35.011Z,13.73
2023-01-06T23:29:02.525Z,14.60
2023-01-06T23:31:31.335Z,13.03
2023-01-06T23:34:03.038Z,12.73
2023-01-06T23:36:30.779Z,12.80
2023-01-06T23:38:58.560Z,12.50
2023-01-06T23:41:27.543Z,12.50
2023-01-06T23:43:55.887Z,10.20
2023-01-06T23:46:41.878Z,11.00
2023-01-06T23:49:12.436Z,10.37
2023-01-06T23:51:40.236Z,10.43
2023-01-06T23:54:08.032Z,9.90
2023-01-06T23:56:36.559Z,9.83
2023-01-06T23:59:05.038Z,9.23
